DAL1165 KLAX-KSFO
Flight info
| Callsign | DAL1165 |
|---|---|
| Flight time | N/A |
| Altitude | 38000 |
| Route | VTU8 RZS BSR BSR3 |
| Aircraft | L101/H-SDFHIWXY/C |
Departure
| Time | 2026-04-22 02:18 |
|---|---|
| Airport | Los Angeles International Airport (KLAX) |
Arrival
| Time | N/A |
|---|---|
| Airport | San Francisco International Airport (KSFO) |
| Time | Latitude | Longitude | Altitude | Speed | Heading |
|---|---|---|---|---|---|
| 2026-04-22 01:37 | 33.94718 | -118.40488 | 98 ft | 0 kts | 132° |
| 2026-04-22 02:08 | 33.94734 | -118.40509 | 100 ft | 3 kts | 132° |
| 2026-04-22 02:08 | 33.94746 | -118.40527 | 99 ft | 4 kts | 112° |
| 2026-04-22 02:09 | 33.94750 | -118.40545 | 98 ft | 4 kts | 72° |
| 2026-04-22 02:09 | 33.94738 | -118.40561 | 98 ft | 4 kts | 353° |
| 2026-04-22 02:09 | 33.94713 | -118.40557 | 100 ft | 2 kts | 353° |
| 2026-04-22 02:09 | 33.94711 | -118.40557 | 98 ft | 0 kts | 353° |
| 2026-04-22 02:14 | 33.94717 | -118.40559 | 98 ft | 2 kts | 344° |
| 2026-04-22 02:14 | 33.94753 | -118.40573 | 100 ft | 9 kts | 342° |
| 2026-04-22 02:14 | 33.94825 | -118.40600 | 101 ft | 12 kts | 348° |
| 2026-04-22 02:15 | 33.94868 | -118.40547 | 99 ft | 11 kts | 81° |
| 2026-04-22 02:15 | 33.94880 | -118.40435 | 99 ft | 16 kts | 83° |
| 2026-04-22 02:15 | 33.94895 | -118.40288 | 99 ft | 20 kts | 83° |
| 2026-04-22 02:15 | 33.94913 | -118.40108 | 98 ft | 23 kts | 83° |
| 2026-04-22 02:16 | 33.94929 | -118.39968 | 98 ft | 12 kts | 75° |
| 2026-04-22 02:16 | 33.94944 | -118.39936 | 98 ft | 0 kts | 47° |
| 2026-04-22 02:17 | 33.94952 | -118.39927 | 100 ft | 5 kts | 41° |
| 2026-04-22 02:17 | 33.95005 | -118.39917 | 99 ft | 10 kts | 355° |
| 2026-04-22 02:17 | 33.95039 | -118.39974 | 99 ft | 9 kts | 266° |
| 2026-04-22 02:17 | 33.95031 | -118.40061 | 101 ft | 16 kts | 264° |
| 2026-04-22 02:18 | 33.94988 | -118.40498 | 103 ft | 96 kts | 263° |
| 2026-04-22 02:18 | 33.94874 | -118.41616 | 331 ft | 157 kts | 263° |
| 2026-04-22 02:18 | 33.94723 | -118.43011 | 1285 ft | 178 kts | 262° |
| 2026-04-22 02:18 | 33.94528 | -118.44485 | 2626 ft | 178 kts | 262° |
| 2026-04-22 02:19 | 33.94325 | -118.46016 | 3865 ft | 196 kts | 262° |
| 2026-04-22 02:19 | 33.94117 | -118.47738 | 4859 ft | 223 kts | 262° |
| 2026-04-22 02:19 | 33.93889 | -118.49738 | 5115 ft | 253 kts | 262° |
| 2026-04-22 02:19 | 33.93654 | -118.51864 | 5104 ft | 252 kts | 262° |
| 2026-04-22 02:20 | 33.93428 | -118.53920 | 5658 ft | 249 kts | 262° |
| 2026-04-22 02:20 | 33.93206 | -118.55983 | 6358 ft | 254 kts | 262° |
| 2026-04-22 02:20 | 33.92984 | -118.58103 | 7092 ft | 256 kts | 262° |
| 2026-04-22 02:20 | 33.92766 | -118.60242 | 7828 ft | 259 kts | 262° |
| 2026-04-22 02:21 | 33.92550 | -118.62398 | 8583 ft | 260 kts | 262° |
| 2026-04-22 02:21 | 33.92336 | -118.64559 | 9351 ft | 260 kts | 261° |
| 2026-04-22 02:21 | 33.92338 | -118.66738 | 10115 ft | 262 kts | 272° |
| 2026-04-22 02:21 | 33.92564 | -118.68920 | 10845 ft | 265 kts | 278° |
| 2026-04-22 02:22 | 33.93090 | -118.71047 | 11576 ft | 266 kts | 285° |
| 2026-04-22 02:22 | 33.93780 | -118.73123 | 12325 ft | 269 kts | 288° |
| 2026-04-22 02:22 | 33.94542 | -118.75191 | 13079 ft | 271 kts | 288° |
| 2026-04-22 02:22 | 33.95401 | -118.77192 | 13850 ft | 277 kts | 296° |
| 2026-04-22 02:23 | 33.96620 | -118.79025 | 14549 ft | 285 kts | 305° |
| 2026-04-22 02:23 | 33.98040 | -118.80706 | 15268 ft | 285 kts | 309° |
| 2026-04-22 02:23 | 33.99544 | -118.82326 | 15997 ft | 296 kts | 310° |
| 2026-04-22 02:23 | 34.01021 | -118.84132 | 16197 ft | 310 kts | 297° |
| 2026-04-22 02:24 | 34.02054 | -118.86475 | 16426 ft | 324 kts | 289° |
| 2026-04-22 02:24 | 34.03003 | -118.89034 | 16585 ft | 346 kts | 290° |
| 2026-04-22 02:24 | 34.04136 | -118.91705 | 16703 ft | 369 kts | 294° |
| 2026-04-22 02:24 | 34.05514 | -118.94412 | 16938 ft | 387 kts | 298° |
| 2026-04-22 02:25 | 34.07024 | -118.97056 | 17719 ft | 386 kts | 300° |
| 2026-04-22 02:25 | 34.08552 | -118.99683 | 18704 ft | 382 kts | 299° |
| 2026-04-22 02:25 | 34.10078 | -119.02342 | 19226 ft | 388 kts | 299° |
| 2026-04-22 02:25 | 34.11606 | -119.04997 | 19964 ft | 379 kts | 299° |
| 2026-04-22 02:26 | 34.13082 | -119.07524 | 19994 ft | 357 kts | 299° |
| 2026-04-22 02:26 | 34.14490 | -119.09898 | 20112 ft | 343 kts | 299° |
| 2026-04-22 02:26 | 34.15880 | -119.12229 | 20275 ft | 341 kts | 297° |
| 2026-04-22 02:26 | 34.16843 | -119.14782 | 20320 ft | 331 kts | 277° |
| 2026-04-22 02:27 | 34.16860 | -119.17500 | 20396 ft | 321 kts | 262° |
| 2026-04-22 02:27 | 34.16921 | -119.20212 | 20544 ft | 331 kts | 281° |
| 2026-04-22 02:27 | 34.17926 | -119.22740 | 20650 ft | 343 kts | 302° |
| 2026-04-22 02:27 | 34.19679 | -119.24711 | 20835 ft | 353 kts | 313° |
| 2026-04-22 02:28 | 34.21613 | -119.26573 | 21049 ft | 357 kts | 313° |
| 2026-04-22 02:28 | 34.23502 | -119.28521 | 21237 ft | 356 kts | 310° |
| 2026-04-22 02:28 | 34.25275 | -119.30585 | 21362 ft | 353 kts | 307° |
| 2026-04-22 02:28 | 34.26926 | -119.32763 | 21493 ft | 350 kts | 303° |
| 2026-04-22 02:29 | 34.28466 | -119.35029 | 21620 ft | 348 kts | 301° |
| 2026-04-22 02:29 | 34.29922 | -119.37367 | 21748 ft | 348 kts | 299° |
| 2026-04-22 02:29 | 34.31315 | -119.39753 | 21876 ft | 347 kts | 298° |
| 2026-04-22 02:29 | 34.32646 | -119.42139 | 22002 ft | 347 kts | 297° |
| 2026-04-22 02:30 | 34.33968 | -119.44581 | 22131 ft | 347 kts | 297° |
| 2026-04-22 02:30 | 34.35275 | -119.47043 | 22262 ft | 348 kts | 296° |
| 2026-04-22 02:30 | 34.36571 | -119.49513 | 22396 ft | 348 kts | 296° |
| 2026-04-22 02:30 | 34.37865 | -119.51990 | 22520 ft | 348 kts | 296° |
| 2026-04-22 02:31 | 34.39158 | -119.54474 | 22673 ft | 349 kts | 296° |
| 2026-04-22 02:31 | 34.40454 | -119.56963 | 22808 ft | 349 kts | 296° |
| 2026-04-22 02:31 | 34.41777 | -119.59501 | 22947 ft | 367 kts | 296° |
| 2026-04-22 02:31 | 34.43172 | -119.62192 | 23098 ft | 387 kts | 297° |
| 2026-04-22 02:32 | 34.44621 | -119.64983 | 23225 ft | 405 kts | 297° |
| 2026-04-22 02:32 | 34.46131 | -119.67896 | 23813 ft | 410 kts | 297° |
| 2026-04-22 02:32 | 34.47637 | -119.70808 | 24588 ft | 408 kts | 297° |
| 2026-04-22 02:32 | 34.49151 | -119.73743 | 25126 ft | 413 kts | 297° |
| 2026-04-22 02:33 | 34.50678 | -119.76716 | 25548 ft | 420 kts | 297° |
| 2026-04-22 02:33 | 34.52257 | -119.79756 | 25687 ft | 434 kts | 299° |
| 2026-04-22 02:33 | 34.54049 | -119.82777 | 25797 ft | 449 kts | 304° |
| 2026-04-22 02:33 | 34.56412 | -119.85385 | 25999 ft | 473 kts | 321° |
| 2026-04-22 02:34 | 34.59447 | -119.87080 | 26574 ft | 489 kts | 335° |
| 2026-04-22 02:34 | 34.62572 | -119.88345 | 27740 ft | 467 kts | 328° |
| 2026-04-22 02:34 | 34.65249 | -119.90380 | 28749 ft | 445 kts | 312° |
| 2026-04-22 02:34 | 34.67392 | -119.93039 | 29365 ft | 439 kts | 305° |
| 2026-04-22 02:35 | 34.69405 | -119.95823 | 30171 ft | 439 kts | 307° |
| 2026-04-22 02:35 | 34.71552 | -119.98451 | 30848 ft | 440 kts | 310° |
| 2026-04-22 02:35 | 34.73855 | -120.00911 | 31561 ft | 440 kts | 313° |
| 2026-04-22 02:35 | 34.76236 | -120.03287 | 32022 ft | 443 kts | 314° |
| 2026-04-22 02:36 | 34.78616 | -120.05616 | 32852 ft | 437 kts | 314° |
| 2026-04-22 02:36 | 34.80971 | -120.07952 | 33547 ft | 436 kts | 314° |
| 2026-04-22 02:36 | 34.83269 | -120.10268 | 34200 ft | 434 kts | 313° |
| 2026-04-22 02:36 | 34.85577 | -120.12625 | 34812 ft | 431 kts | 313° |
| 2026-04-22 02:37 | 34.87860 | -120.14970 | 35439 ft | 429 kts | 313° |
| 2026-04-22 02:37 | 34.90136 | -120.17320 | 35990 ft | 429 kts | 312° |
| 2026-04-22 02:37 | 34.92404 | -120.19667 | 36550 ft | 427 kts | 312° |
| 2026-04-22 02:37 | 34.94663 | -120.22007 | 37069 ft | 427 kts | 312° |
| 2026-04-22 02:38 | 34.96927 | -120.24350 | 37577 ft | 425 kts | 312° |
| 2026-04-22 02:38 | 34.99183 | -120.26685 | 37973 ft | 428 kts | 312° |
| 2026-04-22 02:38 | 35.01423 | -120.29003 | 38083 ft | 429 kts | 312° |
| 2026-04-22 02:39 | 35.05820 | -120.33858 | 38103 ft | 423 kts | 308° |
| 2026-04-22 02:39 | 35.09964 | -120.38936 | 38115 ft | 423 kts | 308° |
| 2026-04-22 02:40 | 35.14186 | -120.43948 | 38109 ft | 423 kts | 309° |
| 2026-04-22 02:40 | 35.18499 | -120.48843 | 38102 ft | 423 kts | 310° |
| 2026-04-22 02:41 | 35.22840 | -120.53640 | 38099 ft | 424 kts | 311° |
| 2026-04-22 02:41 | 35.27249 | -120.58451 | 38110 ft | 425 kts | 311° |
| 2026-04-22 02:42 | 35.31676 | -120.63251 | 38098 ft | 425 kts | 311° |
| 2026-04-22 02:42 | 35.36136 | -120.68014 | 38109 ft | 426 kts | 312° |
| 2026-04-22 02:43 | 35.40602 | -120.72722 | 38136 ft | 426 kts | 312° |
| 2026-04-22 02:43 | 35.45110 | -120.77452 | 38116 ft | 427 kts | 312° |
| 2026-04-22 02:44 | 35.49633 | -120.82194 | 38110 ft | 428 kts | 312° |